createdAt,value
2019-01-15T00:00:14.582Z,6.70
2019-01-15T00:02:42.900Z,6.70
2019-01-15T00:05:11.481Z,6.70
2019-01-15T00:07:39.718Z,6.70
2019-01-15T00:10:09.177Z,6.60
2019-01-15T00:12:37.420Z,6.60
2019-01-15T00:15:07.586Z,6.60
2019-01-15T00:17:35.809Z,6.60
2019-01-15T00:20:07.129Z,6.60
2019-01-15T00:22:35.367Z,6.60
2019-01-15T00:25:04.695Z,6.60
2019-01-15T00:27:32.925Z,6.60
2019-01-15T00:30:01.147Z,6.60
2019-01-15T00:32:29.376Z,6.50
2019-01-15T00:34:57.605Z,6.50
2019-01-15T00:37:25.845Z,6.50
2019-01-15T00:39:54.082Z,6.50
2019-01-15T00:42:22.309Z,6.50
2019-01-15T00:44:50.529Z,6.50
2019-01-15T00:47:18.745Z,6.50
2019-01-15T00:49:46.984Z,6.50
2019-01-15T00:52:15.210Z,6.50
2019-01-15T00:54:43.455Z,6.50
2019-01-15T00:57:11.678Z,6.50
2019-01-15T00:59:39.989Z,6.50
2019-01-15T01:02:08.218Z,6.50
2019-01-15T01:04:36.520Z,6.50
2019-01-15T01:07:05.022Z,6.50
2019-01-15T01:09:33.249Z,6.50
2019-01-15T01:12:01.474Z,6.50
2019-01-15T01:14:29.705Z,6.50
2019-01-15T01:16:57.995Z,6.50
2019-01-15T01:19:26.226Z,6.50
2019-01-15T01:21:54.460Z,6.50
2019-01-15T01:24:22.677Z,6.50
2019-01-15T01:26:50.904Z,6.50
2019-01-15T01:29:19.117Z,6.60
2019-01-15T01:31:47.346Z,6.50
2019-01-15T01:34:15.569Z,6.50
2019-01-15T01:36:43.809Z,6.50
2019-01-15T01:39:12.017Z,6.60
2019-01-15T01:41:40.253Z,6.60
2019-01-15T01:44:08.466Z,6.60
2019-01-15T01:46:36.770Z,6.60
2019-01-15T01:49:05.032Z,6.60
2019-01-15T01:51:33.237Z,6.60
2019-01-15T01:54:01.461Z,6.60
2019-01-15T01:56:29.725Z,6.50
2019-01-15T01:58:57.945Z,6.50
2019-01-15T02:01:26.182Z,6.40
2019-01-15T02:03:54.405Z,6.40
2019-01-15T02:06:22.688Z,6.40
2019-01-15T02:08:50.929Z,6.40
2019-01-15T02:11:19.169Z,6.30
2019-01-15T02:13:47.381Z,6.30
2019-01-15T02:16:15.610Z,6.30
2019-01-15T02:18:43.828Z,6.30
2019-01-15T02:21:12.046Z,6.30
2019-01-15T02:23:40.282Z,6.30
2019-01-15T02:26:08.509Z,6.30
2019-01-15T02:28:36.753Z,6.30
2019-01-15T02:31:04.981Z,6.30
2019-01-15T02:33:33.202Z,6.30
2019-01-15T02:36:01.434Z,6.30
2019-01-15T02:38:29.657Z,6.20
2019-01-15T02:40:57.878Z,6.20
2019-01-15T02:43:26.117Z,6.20
2019-01-15T02:45:54.384Z,6.20
2019-01-15T02:48:22.614Z,6.20
2019-01-15T02:50:50.925Z,6.20
2019-01-15T02:53:19.158Z,6.20
2019-01-15T02:55:47.373Z,6.20
2019-01-15T02:58:15.610Z,6.20
2019-01-15T03:00:43.837Z,6.20
2019-01-15T03:03:12.078Z,6.20
2019-01-15T03:05:40.311Z,6.20
2019-01-15T03:08:08.545Z,6.20
2019-01-15T03:10:36.757Z,6.20
2019-01-15T03:13:04.988Z,6.20
2019-01-15T03:15:33.209Z,6.20
2019-01-15T03:18:01.564Z,6.20
2019-01-15T03:20:29.785Z,6.20
2019-01-15T03:22:58.013Z,6.10
2019-01-15T03:25:26.251Z,6.10
2019-01-15T03:27:54.470Z,6.10
2019-01-15T03:30:23.312Z,6.10
2019-01-15T03:32:51.630Z,6.10
2019-01-15T03:35:19.861Z,6.00
2019-01-15T03:37:48.104Z,6.00
2019-01-15T03:40:18.578Z,6.00
2019-01-15T03:42:46.837Z,6.00
2019-01-15T03:45:15.114Z,6.00
2019-01-15T03:47:43.340Z,6.00
2019-01-15T03:50:11.576Z,6.00
2019-01-15T03:52:39.789Z,6.10
2019-01-15T03:55:09.976Z,6.10
2019-01-15T03:57:38.222Z,6.10
2019-01-15T04:00:18.019Z,6.10
2019-01-15T04:02:46.497Z,6.10
2019-01-15T04:05:16.397Z,6.10
2019-01-15T04:07:45.155Z,6.10
2019-01-15T04:10:13.374Z,6.20
2019-01-15T04:12:41.605Z,6.20
2019-01-15T04:15:12.489Z,6.20
2019-01-15T04:17:40.726Z,6.20
2019-01-15T04:20:12.156Z,6.10
2019-01-15T04:22:40.389Z,6.10
2019-01-15T04:25:09.355Z,6.10
2019-01-15T04:27:37.702Z,6.10
2019-01-15T04:30:11.977Z,6.10
2019-01-15T04:32:40.225Z,6.10
2019-01-15T04:35:09.382Z,6.10
2019-01-15T04:37:37.617Z,6.20
2019-01-15T04:40:11.955Z,6.20
2019-01-15T04:42:40.245Z,6.20
2019-01-15T04:45:13.043Z,6.20
2019-01-15T04:47:41.334Z,6.20
2019-01-15T04:50:10.014Z,6.20
2019-01-15T04:52:39.342Z,6.20
2019-01-15T04:55:09.668Z,6.20
2019-01-15T04:57:37.905Z,6.20
2019-01-15T05:00:09.387Z,6.20
2019-01-15T05:02:38.782Z,6.30
2019-01-15T05:05:07.541Z,6.20
2019-01-15T05:07:35.780Z,6.30
2019-01-15T05:10:06.637Z,6.30
2019-01-15T05:12:34.862Z,6.30
2019-01-15T05:15:03.566Z,6.30
2019-01-15T05:17:31.817Z,6.30
2019-01-15T05:20:00.075Z,6.30
2019-01-15T05:22:28.357Z,6.30
2019-01-15T05:24:56.588Z,6.30
2019-01-15T05:27:24.851Z,6.30
2019-01-15T05:29:53.125Z,6.30
2019-01-15T05:32:21.333Z,6.40
2019-01-15T05:34:49.566Z,6.40
2019-01-15T05:37:17.785Z,6.40
2019-01-15T05:39:46.028Z,6.40
2019-01-15T05:42:14.253Z,6.40
2019-01-15T05:44:42.484Z,6.50
2019-01-15T05:47:10.767Z,6.50
2019-01-15T05:49:39.025Z,6.50
2019-01-15T05:52:07.251Z,6.50
2019-01-15T05:54:35.488Z,6.50
2019-01-15T05:57:03.720Z,6.50
2019-01-15T05:59:31.948Z,6.50
2019-01-15T06:02:00.173Z,6.50
2019-01-15T06:04:28.391Z,6.50
2019-01-15T06:06:56.620Z,6.50
2019-01-15T06:09:24.849Z,6.60
2019-01-15T06:11:53.242Z,6.60
2019-01-15T06:14:21.484Z,6.60
2019-01-15T06:16:49.801Z,6.60
2019-01-15T06:19:18.021Z,6.60
2019-01-15T06:21:46.270Z,6.60
2019-01-15T06:24:14.484Z,6.60
2019-01-15T06:26:42.714Z,6.70
2019-01-15T06:29:11.004Z,6.70
2019-01-15T06:31:39.260Z,6.70
2019-01-15T06:34:07.490Z,6.70
2019-01-15T06:36:35.722Z,6.80
2019-01-15T06:39:06.755Z,6.80
2019-01-15T06:41:36.721Z,6.80
2019-01-15T06:44:05.025Z,6.80
2019-01-15T06:46:33.245Z,6.90
2019-01-15T06:49:01.481Z,6.90
2019-01-15T06:51:29.746Z,6.90
2019-01-15T06:53:58.033Z,6.90
2019-01-15T06:56:26.290Z,6.90
2019-01-15T06:58:54.521Z,7.00
2019-01-15T07:01:22.835Z,7.00
2019-01-15T07:03:51.152Z,7.00
2019-01-15T07:06:19.454Z,7.00
2019-01-15T07:08:47.689Z,7.00
2019-01-15T07:11:15.995Z,7.00
2019-01-15T07:13:44.255Z,7.10
2019-01-15T07:16:13.056Z,7.10
2019-01-15T07:18:41.385Z,7.10
2019-01-15T07:21:09.658Z,7.20
2019-01-15T07:23:37.916Z,7.20
2019-01-15T07:26:06.203Z,7.20
2019-01-15T07:28:34.438Z,7.20
2019-01-15T07:31:02.682Z,7.30
2019-01-15T07:33:30.914Z,7.30
2019-01-15T07:35:59.136Z,7.30
2019-01-15T07:38:27.377Z,7.30
2019-01-15T07:40:55.591Z,7.30
2019-01-15T07:43:23.966Z,7.40
2019-01-15T07:45:52.175Z,7.40
2019-01-15T07:48:20.409Z,7.40
2019-01-15T07:50:48.651Z,7.40
2019-01-15T07:53:16.891Z,7.40
2019-01-15T07:55:45.134Z,7.50
2019-01-15T07:58:15.314Z,7.50
2019-01-15T08:00:43.623Z,7.50
2019-01-15T08:03:11.854Z,7.50
2019-01-15T08:05:40.160Z,7.60
2019-01-15T08:08:08.465Z,7.60
2019-01-15T08:10:36.709Z,7.60
2019-01-15T08:13:04.999Z,7.60
2019-01-15T08:15:33.246Z,7.60
2019-01-15T08:18:01.487Z,7.60
2019-01-15T08:20:29.710Z,7.60
2019-01-15T08:22:57.949Z,7.70
2019-01-15T08:25:26.210Z,7.70
2019-01-15T08:27:54.453Z,7.70
2019-01-15T08:30:27.756Z,7.70
2019-01-15T08:32:55.977Z,7.70
2019-01-15T08:35:24.237Z,7.70
2019-01-15T08:37:52.469Z,7.70
2019-01-15T08:40:20.739Z,7.80
2019-01-15T08:42:48.961Z,7.80
2019-01-15T08:45:17.875Z,7.80
2019-01-15T08:47:47.756Z,7.80
2019-01-15T08:50:24.725Z,7.80
2019-01-15T08:52:55.602Z,7.80
2019-01-15T08:55:23.905Z,7.90
2019-01-15T08:57:52.128Z,7.90
2019-01-15T09:00:20.360Z,7.90
2019-01-15T09:02:48.600Z,7.90
2019-01-15T09:05:16.897Z,8.00
2019-01-15T09:07:45.140Z,8.00
2019-01-15T09:10:16.722Z,8.00
2019-01-15T09:12:44.958Z,8.00
2019-01-15T09:15:18.826Z,8.10
2019-01-15T09:17:47.143Z,8.10
2019-01-15T09:20:17.377Z,8.10
2019-01-15T09:22:45.686Z,8.10
2019-01-15T09:25:13.919Z,8.20
2019-01-15T09:27:42.221Z,8.20
2019-01-15T09:30:13.985Z,8.20
2019-01-15T09:32:42.225Z,8.20
2019-01-15T09:35:10.485Z,8.30
2019-01-15T09:37:39.297Z,8.30
2019-01-15T09:40:10.854Z,8.30
2019-01-15T09:42:39.089Z,8.30
2019-01-15T09:45:13.102Z,8.30
2019-01-15T09:47:42.982Z,8.40
2019-01-15T09:50:12.047Z,8.40
2019-01-15T09:52:40.380Z,8.40
2019-01-15T09:55:09.361Z,8.50
2019-01-15T09:57:37.604Z,8.50
2019-01-15T10:00:12.311Z,8.50
2019-01-15T10:02:40.561Z,8.50
2019-01-15T10:05:08.909Z,8.50
2019-01-15T10:07:37.422Z,8.60
2019-01-15T10:10:08.936Z,8.60
2019-01-15T10:12:37.287Z,8.60
2019-01-15T10:15:14.635Z,8.60
2019-01-15T10:17:42.883Z,8.60
2019-01-15T10:20:12.830Z,8.60
2019-01-15T10:22:53.050Z,8.70
2019-01-15T10:25:25.615Z,8.70
2019-01-15T10:27:54.389Z,8.70
2019-01-15T10:30:30.263Z,8.70
2019-01-15T10:33:05.090Z,8.80
2019-01-15T10:35:36.809Z,8.80
2019-01-15T10:38:05.105Z,8.80
2019-01-15T10:40:33.390Z,8.80
2019-01-15T10:43:01.625Z,8.80
2019-01-15T10:45:31.391Z,8.80
2019-01-15T10:47:59.610Z,8.80
2019-01-15T10:50:27.845Z,8.80
2019-01-15T10:52:58.853Z,8.80
2019-01-15T10:55:27.139Z,8.80
2019-01-15T10:57:55.354Z,8.80
2019-01-15T11:00:23.917Z,8.80
2019-01-15T11:02:52.122Z,8.80
2019-01-15T11:05:20.357Z,8.80
2019-01-15T11:07:48.574Z,8.90
2019-01-15T11:10:16.845Z,8.90
2019-01-15T11:12:45.081Z,8.90
2019-01-15T11:15:13.338Z,8.90
2019-01-15T11:17:41.544Z,9.00
2019-01-15T11:20:13.057Z,9.00
2019-01-15T11:22:41.256Z,9.00
2019-01-15T11:25:11.251Z,9.00
2019-01-15T11:27:39.642Z,9.00
2019-01-15T11:30:10.297Z,9.00
2019-01-15T11:32:38.544Z,9.00
2019-01-15T11:35:09.492Z,9.00
2019-01-15T11:37:37.733Z,9.10
2019-01-15T11:40:14.682Z,9.10
2019-01-15T11:42:42.889Z,9.20
2019-01-15T11:45:13.249Z,9.20
2019-01-15T11:47:41.582Z,9.20
2019-01-15T11:50:15.389Z,9.20
2019-01-15T11:52:43.649Z,9.20
2019-01-15T11:55:11.987Z,9.20
2019-01-15T11:57:40.301Z,9.20
2019-01-15T12:00:11.801Z,9.20
2019-01-15T12:02:41.166Z,9.20
2019-01-15T12:05:14.042Z,9.20
2019-01-15T12:07:43.931Z,9.30
2019-01-15T12:10:16.510Z,9.30
2019-01-15T12:12:46.383Z,9.30
2019-01-15T12:15:22.062Z,9.30
2019-01-15T12:17:51.938Z,9.30
2019-01-15T12:20:24.536Z,9.20
2019-01-15T12:23:03.581Z,9.20
2019-01-15T12:25:36.313Z,9.30
2019-01-15T12:28:08.882Z,9.30
2019-01-15T12:30:44.645Z,9.30
2019-01-15T12:33:20.182Z,9.30
2019-01-15T12:35:53.075Z,9.30
2019-01-15T12:38:25.671Z,9.30
2019-01-15T12:40:59.605Z,9.30
2019-01-15T12:43:35.779Z,9.30
2019-01-15T12:46:05.638Z,9.30
2019-01-15T12:48:50.385Z,9.30
2019-01-15T12:51:20.253Z,9.30
2019-01-15T12:53:58.869Z,9.30
2019-01-15T12:56:37.773Z,9.30
2019-01-15T12:59:07.616Z,9.30
2019-01-15T13:01:43.202Z,9.30
2019-01-15T13:04:30.934Z,9.40
2019-01-15T13:07:00.801Z,9.30
2019-01-15T13:09:36.748Z,9.30
2019-01-15T13:12:20.925Z,9.30
2019-01-15T13:14:50.952Z,9.30
2019-01-15T13:17:36.965Z,9.30
2019-01-15T13:20:12.788Z,9.30
2019-01-15T13:22:58.991Z,9.30
2019-01-15T13:25:34.877Z,9.40
2019-01-15T13:28:04.939Z,9.40
2019-01-15T13:30:50.769Z,9.40
2019-01-15T13:33:20.701Z,9.40
2019-01-15T13:35:50.585Z,9.40
2019-01-15T13:38:35.318Z,9.40
2019-01-15T13:41:14.264Z,9.40
2019-01-15T13:43:44.137Z,9.40
2019-01-15T13:46:22.862Z,9.40
2019-01-15T13:48:52.743Z,9.40
2019-01-15T13:51:25.273Z,9.40
2019-01-15T13:54:13.032Z,9.40
2019-01-15T13:56:52.037Z,9.40
2019-01-15T13:59:27.838Z,9.40
2019-01-15T14:01:57.761Z,9.40
2019-01-15T14:04:39.531Z,9.40
2019-01-15T14:07:25.690Z,9.40
2019-01-15T14:10:07.737Z,9.40
2019-01-15T14:12:37.607Z,9.40
2019-01-15T14:15:17.053Z,9.40
2019-01-15T14:17:55.785Z,9.40
2019-01-15T14:20:25.654Z,9.40
2019-01-15T14:23:04.301Z,9.40
2019-01-15T14:25:34.185Z,9.40
2019-01-15T14:28:20.098Z,9.40
2019-01-15T14:30:52.932Z,9.40
2019-01-15T14:33:28.645Z,9.40
2019-01-15T14:36:26.069Z,9.40
2019-01-15T14:39:14.015Z,9.40
2019-01-15T14:41:43.878Z,9.40
2019-01-15T14:44:31.633Z,9.40
2019-01-15T14:47:16.243Z,9.40
2019-01-15T14:49:55.041Z,9.40
2019-01-15T14:52:36.798Z,9.40
2019-01-15T14:55:23.809Z,9.50
2019-01-15T14:58:10.052Z,9.50
2019-01-15T15:00:42.759Z,9.50
2019-01-15T15:03:27.553Z,9.50
2019-01-15T15:05:57.435Z,9.50
2019-01-15T15:08:27.286Z,9.50
2019-01-15T15:11:05.914Z,9.50
2019-01-15T15:13:47.574Z,9.50
2019-01-15T15:16:29.577Z,9.50
2019-01-15T15:18:59.436Z,9.50
2019-01-15T15:21:45.284Z,9.60
2019-01-15T15:24:21.110Z,9.50
2019-01-15T15:26:50.977Z,9.60
2019-01-15T15:29:26.729Z,9.60
2019-01-15T15:32:08.707Z,9.60
2019-01-15T15:34:38.580Z,9.60
2019-01-15T15:37:24.743Z,9.50
2019-01-15T15:39:54.696Z,9.50
2019-01-15T15:42:24.561Z,9.50
2019-01-15T15:44:54.429Z,9.50
2019-01-15T15:47:24.305Z,9.50
2019-01-15T15:49:56.876Z,9.50
2019-01-15T15:52:29.455Z,9.50
2019-01-15T15:55:15.351Z,9.50
2019-01-15T15:57:54.317Z,9.50
2019-01-15T16:00:24.418Z,9.50
2019-01-15T16:03:10.379Z,9.50
2019-01-15T16:05:43.731Z,9.50
2019-01-15T16:08:16.317Z,9.50
2019-01-15T16:10:49.166Z,9.40
2019-01-15T16:13:19.052Z,9.40
2019-01-15T16:15:54.626Z,9.40
2019-01-15T16:18:36.058Z,9.40
2019-01-15T16:21:21.950Z,9.40
2019-01-15T16:24:06.857Z,9.40
2019-01-15T16:26:42.468Z,9.40
2019-01-15T16:29:13.144Z,9.40
2019-01-15T16:31:46.078Z,9.40
2019-01-15T16:34:18.593Z,9.40
2019-01-15T16:36:57.292Z,9.40
2019-01-15T16:39:29.966Z,9.40
2019-01-15T16:42:08.941Z,9.40
2019-01-15T16:44:44.825Z,9.40
2019-01-15T16:47:17.665Z,9.40
2019-01-15T16:50:11.263Z,9.40
2019-01-15T16:52:36.938Z,9.40
2019-01-15T16:55:09.915Z,9.40
2019-01-15T16:57:42.605Z,9.40
2019-01-15T17:00:31.901Z,9.40
2019-01-15T17:03:01.798Z,9.50
2019-01-15T17:05:43.438Z,9.50
2019-01-15T17:08:19.013Z,9.50
2019-01-15T17:10:51.590Z,9.50
2019-01-15T17:13:21.453Z,9.50
2019-01-15T17:16:03.412Z,9.50
2019-01-15T17:18:49.672Z,9.50
2019-01-15T17:21:19.526Z,9.50
2019-01-15T17:23:52.124Z,9.50
2019-01-15T17:26:22.002Z,9.50
2019-01-15T17:28:57.880Z,9.50
2019-01-15T17:31:33.585Z,9.50
2019-01-15T17:34:03.545Z,9.50
2019-01-15T17:36:36.377Z,9.50
2019-01-15T17:39:25.078Z,9.50
2019-01-15T17:42:11.461Z,9.50
2019-01-15T17:44:41.374Z,9.50
2019-01-15T17:47:16.910Z,9.50
2019-01-15T17:49:53.014Z,9.50
2019-01-15T17:52:43.598Z,9.50
2019-01-15T17:55:26.293Z,9.50
2019-01-15T17:58:02.140Z,9.50
2019-01-15T18:00:32.018Z,9.50
2019-01-15T18:03:04.649Z,9.50
2019-01-15T18:05:34.547Z,9.50
2019-01-15T18:08:10.305Z,9.50
2019-01-15T18:10:40.256Z,9.50
2019-01-15T18:13:16.211Z,9.50
2019-01-15T18:16:04.026Z,9.50
2019-01-15T18:18:36.584Z,9.50
2019-01-15T18:21:06.909Z,9.50
2019-01-15T18:23:42.858Z,9.60
2019-01-15T18:26:15.553Z,9.60
2019-01-15T18:29:07.698Z,9.60
2019-01-15T18:31:38.588Z,9.60
2019-01-15T18:34:13.855Z,9.60
2019-01-15T18:36:52.426Z,9.60
2019-01-15T18:39:22.349Z,9.60
2019-01-15T18:42:10.071Z,9.60
2019-01-15T18:44:54.798Z,9.60
2019-01-15T18:47:24.669Z,9.60
2019-01-15T18:50:00.627Z,9.60
2019-01-15T18:52:46.946Z,9.60
2019-01-15T18:55:35.447Z,9.60
2019-01-15T18:58:22.064Z,9.60
2019-01-15T19:00:54.726Z,9.60
2019-01-15T19:03:24.616Z,9.60
2019-01-15T19:06:10.802Z,9.60
2019-01-15T19:08:49.361Z,9.60
2019-01-15T19:11:19.679Z,9.50
2019-01-15T19:13:52.265Z,9.60
2019-01-15T19:16:24.769Z,9.50
2019-01-15T19:19:13.403Z,9.50
2019-01-15T19:22:01.461Z,9.50
2019-01-15T19:24:47.653Z,9.50
2019-01-15T19:27:23.498Z,9.50
2019-01-15T19:29:53.453Z,9.50
2019-01-15T19:32:35.262Z,9.50
2019-01-15T19:35:08.182Z,9.50
2019-01-15T19:37:41.049Z,9.50
2019-01-15T19:40:13.970Z,9.40
2019-01-15T19:42:49.301Z,9.40
2019-01-15T19:45:35.385Z,9.40
2019-01-15T19:48:05.257Z,9.40
2019-01-15T19:50:35.137Z,9.40
2019-01-15T19:53:05.024Z,9.40
2019-01-15T19:55:46.584Z,9.40
2019-01-15T19:58:16.469Z,9.40
2019-01-15T20:00:46.341Z,9.40
2019-01-15T20:03:19.141Z,9.40
2019-01-15T20:05:57.842Z,9.40
2019-01-15T20:08:43.880Z,9.40
2019-01-15T20:11:13.749Z,9.40
2019-01-15T20:13:46.618Z,9.40
2019-01-15T20:16:16.515Z,9.40
2019-01-15T20:18:46.563Z,9.40
2019-01-15T20:21:28.666Z,9.40
2019-01-15T20:24:04.217Z,9.40
2019-01-15T20:26:49.112Z,9.40
2019-01-15T20:29:18.997Z,9.40
2019-01-15T20:31:49.301Z,9.40
2019-01-15T20:34:28.413Z,9.40
2019-01-15T20:37:00.994Z,9.40
2019-01-15T20:39:30.853Z,9.40
2019-01-15T20:42:03.728Z,9.40
2019-01-15T20:44:45.395Z,9.40
2019-01-15T20:47:33.136Z,9.40
2019-01-15T20:50:03.023Z,9.40
2019-01-15T20:52:38.706Z,9.40
2019-01-15T20:55:10.727Z,9.40
2019-01-15T20:57:49.834Z,9.40
2019-01-15T21:00:25.606Z,9.40
2019-01-15T21:03:04.610Z,9.40
2019-01-15T21:05:50.617Z,9.40
2019-01-15T21:08:20.488Z,9.40
2019-01-15T21:10:50.355Z,9.50
2019-01-15T21:13:35.058Z,9.50
2019-01-15T21:16:19.701Z,9.50
2019-01-15T21:19:04.405Z,9.50
2019-01-15T21:21:46.026Z,9.50
2019-01-15T21:24:24.756Z,9.50
2019-01-15T21:26:54.653Z,9.60
2019-01-15T21:29:24.506Z,9.60
2019-01-15T21:31:57.386Z,9.60
2019-01-15T21:34:30.065Z,9.60
2019-01-15T21:36:59.962Z,9.60
2019-01-15T21:39:45.922Z,9.60
2019-01-15T21:42:21.810Z,9.60
2019-01-15T21:45:03.545Z,9.60
2019-01-15T21:47:40.101Z,9.60
2019-01-15T21:50:08.835Z,9.60
2019-01-15T21:52:38.732Z,9.60
2019-01-15T21:55:17.263Z,9.60
2019-01-15T21:57:47.133Z,9.60
2019-01-15T22:00:31.844Z,9.60
2019-01-15T22:03:01.721Z,9.60
2019-01-15T22:05:31.593Z,9.60
2019-01-15T22:08:13.668Z,9.70
2019-01-15T22:10:59.278Z,9.70
2019-01-15T22:13:38.185Z,9.70
2019-01-15T22:16:10.955Z,9.70
2019-01-15T22:18:46.869Z,9.70
2019-01-15T22:21:25.553Z,9.70
2019-01-15T22:24:10.596Z,9.70
2019-01-15T22:26:40.467Z,9.70
2019-01-15T22:29:10.353Z,9.70
2019-01-15T22:31:58.439Z,9.60
2019-01-15T22:34:44.348Z,9.60
2019-01-15T22:37:14.222Z,9.60
2019-01-15T22:39:49.799Z,9.60
2019-01-15T22:42:25.064Z,9.60
2019-01-15T22:45:10.077Z,9.60
2019-01-15T22:47:39.938Z,9.60
2019-01-15T22:50:15.595Z,9.60
2019-01-15T22:52:45.458Z,9.60
2019-01-15T22:55:15.325Z,9.60
2019-01-15T22:57:57.029Z,9.60
2019-01-15T23:00:50.661Z,9.60
2019-01-15T23:03:22.946Z,9.60
2019-01-15T23:06:08.953Z,9.60
2019-01-15T23:08:53.858Z,9.60
2019-01-15T23:11:40.321Z,9.60
2019-01-15T23:14:26.492Z,9.60
2019-01-15T23:17:02.316Z,9.50
2019-01-15T23:19:48.440Z,9.50
2019-01-15T23:22:18.322Z,9.50
2019-01-15T23:24:48.177Z,9.50
2019-01-15T23:27:24.033Z,9.50
2019-01-15T23:29:53.889Z,9.50
2019-01-15T23:32:26.496Z,9.50
2019-01-15T23:34:59.141Z,9.50
2019-01-15T23:37:34.962Z,9.50
2019-01-15T23:40:04.838Z,9.50
2019-01-15T23:42:43.598Z,9.40
2019-01-15T23:45:28.542Z,9.40
2019-01-15T23:48:09.663Z,9.50
2019-01-15T23:50:38.427Z,9.50
2019-01-15T23:53:17.080Z,9.40
2019-01-15T23:55:47.287Z,9.40
2019-01-15T23:58:19.870Z,9.50
